^^
Meteo Knjazevac Station Historical Data
Daily Summary for February 16, 2021 Units:  English    Metric   Both
Daily Weekly Monthly Yearly Custom
  High: Low: Average:
Temperature: 71.4 °F 48.7 °F 60.5 °F
Dew Point: 60.3 °F 48.2 °F 55.2 °F
Humidity: 99% 60% 84%
Wind Speed: 12mph 0mph 2.1mph
Wind Gust: 22mph - -
Wind- - SSW
Pressure: 29.89 in 29.85 in -
Precipitation: 0.01 in    
Historical Graphs
 
 
Tabular Data for February 16, 2021
Time Temperature Dew Point Pressure Wind Wind Speed Wind Gust Humidity Rainfall Rate (Hourly) solar Conditions
00:00 56.1 °F 54.7 °F 29.86 in Calm   2 mph 95% 0.00 in 0 W/m2
00:10 56 °F 54.9 °F 29.86 in WNW 1 mph 3 mph 96% 0.00 in 0 W/m2
00:20 55.8 °F 54.4 °F 29.86 in WSW 1 mph 2 mph 95% 0.00 in 0 W/m2
00:30 55.8 °F 54.6 °F 29.86 in West 1 mph 2 mph 96% 0.00 in 0 W/m2
00:40 55.6 °F 54.5 °F 29.86 in West 1 mph 3 mph 96% 0.00 in 0 W/m2
00:50 55.2 °F 54.1 °F 29.86 in NW 1 mph 3 mph 96% 0.00 in 0 W/m2
01:00 55.2 °F 54.1 °F 29.86 in Calm   2 mph 96% 0.00 in 0 W/m2
01:10 55.2 °F 54.1 °F 29.85 in Calm   2 mph 96% 0.00 in 0 W/m2
01:20 55.2 °F 54.1 °F 29.86 in Calm   2 mph 96% 0.00 in 0 W/m2
01:30 55 °F 53.9 °F 29.86 in Calm   2 mph 96% 0.00 in 0 W/m2
01:40 54.8 °F 53.7 °F 29.86 in SSW 1 mph 2 mph 96% 0.00 in 0 W/m2
01:50 54.5 °F 53.4 °F 29.86 in Calm   2 mph 96% 0.00 in 0 W/m2
02:00 54.3 °F 53.2 °F 29.85 in Calm   1 mph 96% 0.00 in 0 W/m2
02:10 54.1 °F 52.7 °F 29.85 in Calm   2 mph 95% 0.00 in 0 W/m2
02:20 53.8 °F 52.7 °F 29.86 in WSW 1 mph 3 mph 96% 0.00 in 0 W/m2
02:30 53.4 °F 52 °F 29.86 in WNW 1 mph 3 mph 95% 0.00 in 0 W/m2
02:40 53.4 °F 52.3 °F 29.85 in Calm   2 mph 96% 0.00 in 0 W/m2
02:50 52.9 °F 51.5 °F 29.85 in Calm   2 mph 95% 0.00 in 0 W/m2
03:00 52.5 °F 51.4 °F 29.85 in Calm   1 mph 96% 0.00 in 0 W/m2
03:10 52.3 °F 51.2 °F 29.85 in Calm   2 mph 96% 0.00 in 0 W/m2
03:20 52 °F 50.9 °F 29.85 in WNW 2 mph 3 mph 96% 0.00 in 0 W/m2
03:30 51.6 °F 50.5 °F 29.85 in WNW 1 mph 3 mph 96% 0.00 in 0 W/m2
03:40 51.3 °F 50.2 °F 29.85 in Calm   2 mph 96% 0.00 in 0 W/m2
03:50 50.9 °F 49.8 °F 29.86 in Calm   2 mph 96% 0.00 in 0 W/m2
04:00 50.7 °F 49.6 °F 29.86 in Calm   2 mph 96% 0.00 in 0 W/m2
04:10 50.4 °F 49.3 °F 29.86 in Calm   3 mph 96% 0.00 in 0 W/m2
04:20 50.3 °F 49.2 °F 29.86 in Calm   2 mph 96% 0.00 in 0 W/m2
04:30 50.2 °F 49.6 °F 29.86 in Calm   2 mph 98% 0.00 in 0 W/m2
04:40 50 °F 49.5 °F 29.86 in WNW 1 mph 3 mph 98% 0.00 in 0 W/m2
04:50 49.8 °F 49.3 °F 29.86 in WSW 2 mph 3 mph 98% 0.00 in 0 W/m2
05:00 49.3 °F 48.5 °F 29.86 in WSW 1 mph 3 mph 97% 0.00 in 0 W/m2
05:10 49.1 °F 48.6 °F 29.86 in West 1 mph 3 mph 98% 0.00 in 5 W/m2
05:20 48.9 °F 48.4 °F 29.87 in NW 1 mph 2 mph 98% 0.00 in 12 W/m2
05:30 48.8 °F 48.3 °F 29.87 in Calm   2 mph 98% 0.00 in 22 W/m2
05:40 48.7 °F 48.2 °F 29.87 in Calm   2 mph 98% 0.00 in 32 W/m2
05:50 48.7 °F 48.2 °F 29.87 in Calm   1 mph 98% 0.00 in 44 W/m2
06:00 48.7 °F 48.2 °F 29.87 in Calm   2 mph 98% 0.00 in 71 W/m2
06:10 48.7 °F 48.2 °F 29.87 in Calm   2 mph 98% 0.00 in 64 W/m2
06:20 48.9 °F 48.7 °F 29.87 in Calm   3 mph 99% 0.00 in 67 W/m2
06:30 49.1 °F 48.8 °F 29.87 in Calm   2 mph 99% 0.00 in 135 W/m2
06:40 49.5 °F 49.2 °F 29.87 in Calm   2 mph 99% 0.00 in 184 W/m2
06:50 49.9 °F 49.6 °F 29.87 in Calm   2 mph 99% 0.00 in 240 W/m2
07:00 50.9 °F 50.6 °F 29.87 in NE 1 mph 6 mph 99% 0.00 in 284 W/m2
07:10 52.1 °F 51.8 °F 29.87 in ENE 2 mph 6 mph 99% 0.00 in 315 W/m2
07:20 53.1 °F 52.8 °F 29.87 in NNE 3 mph 7 mph 99% 0.00 in 346 W/m2
07:30 54.1 °F 53.6 °F 29.87 in NE 2 mph 6 mph 98% 0.00 in 377 W/m2
07:40 55.2 °F 54.1 °F 29.87 in East 2 mph 8 mph 96% 0.00 in 408 W/m2
07:50 56.3 °F 55.2 °F 29.87 in NNE 2 mph 6 mph 96% 0.00 in 397 W/m2
08:00 57.3 °F 55.6 °F 29.87 in NE 3 mph 7 mph 94% 0.00 in 336 W/m2
08:10 58.5 °F 55.8 °F 29.87 in ESE 2 mph 7 mph 91% 0.00 in 501 W/m2
08:20 59.5 °F 56 °F 29.87 in SSW 2 mph 7 mph 88% 0.00 in 246 W/m2
08:30 60 °F 55.5 °F 29.87 in SW 3 mph 7 mph 85% 0.00 in 212 W/m2
08:40 60.3 °F 55.4 °F 29.87 in SW 3 mph 9 mph 84% 0.00 in 426 W/m2
08:50 60.8 °F 55.6 °F 29.87 in SSW 5 mph 7 mph 83% 0.00 in 441 W/m2
09:00 62.1 °F 56.2 °F 29.87 in SSW 2 mph 7 mph 81% 0.00 in 645 W/m2
09:10 63.8 °F 56.8 °F 29.87 in SW 3 mph 6 mph 78% 0.00 in 671 W/m2
09:20 64.9 °F 57.5 °F 29.87 in SSW 2 mph 6 mph 77% 0.00 in 697 W/m2
09:30 66.3 °F 57.8 °F 29.86 in SSE 1 mph 6 mph 74% 0.00 in 670 W/m2
09:40 66.4 °F 57.5 °F 29.86 in SSW 2 mph 5 mph 73% 0.00 in 407 W/m2
09:50 66.2 °F 56.9 °F 29.86 in SSW 2 mph 5 mph 72% 0.00 in 372 W/m2
10:00 66.2 °F 57.3 °F 29.86 in Calm   4 mph 73% 0.00 in 330 W/m2
10:10 66.3 °F 57 °F 29.86 in SW 2 mph 6 mph 72% 0.00 in 279 W/m2
10:20 66.4 °F 57.5 °F 29.86 in SW 5 mph 7 mph 73% 0.00 in 303 W/m2
10:30 66.4 °F 57.5 °F 29.86 in WSW 6 mph 8 mph 73% 0.00 in 248 W/m2
10:40 66.1 °F 57.6 °F 29.87 in WSW 6 mph 10 mph 74% 0.00 in 199 W/m2
10:50 65.3 °F 56.8 °F 29.87 in SW 7 mph 11 mph 74% 0.00 in 191 W/m2
11:00 64.3 °F 57.6 °F 29.87 in SW 5 mph 9 mph 79% 0.00 in 252 W/m2
11:10 64 °F 58.1 °F 29.87 in SW 3 mph 6 mph 81% 0.00 in 277 W/m2
11:20 64 °F 58.8 °F 29.87 in SW 3 mph 6 mph 83% 0.00 in 215 W/m2
11:30 64 °F 58.8 °F 29.87 in SW 3 mph 6 mph 83% 0.00 in 254 W/m2
11:40 64.3 °F 59.4 °F 29.87 in SW 2 mph 7 mph 84% 0.00 in 420 W/m2
11:50 65.1 °F 59.1 °F 29.87 in SW 2 mph 6 mph 81% 0.00 in 444 W/m2
12:00 65.8 °F 59.1 °F 29.87 in West 3 mph 7 mph 79% 0.00 in 574 W/m2
12:10 66.2 °F 57.7 °F 29.86 in West 5 mph 8 mph 74% 0.00 in 662 W/m2
12:20 66.4 °F 57.1 °F 29.86 in WSW 3 mph 8 mph 72% 0.00 in 437 W/m2
12:30 66.7 °F 57.4 °F 29.86 in WNW 2 mph 8 mph 72% 0.00 in 948 W/m2
12:40 67.3 °F 57.6 °F 29.86 in West 1 mph 8 mph 71% 0.00 in 317 W/m2
12:50 67 °F 56.9 °F 29.86 in WNW 2 mph 5 mph 70% 0.00 in 152 W/m2
13:00 66.7 °F 56.6 °F 29.86 in West 2 mph 5 mph 70% 0.00 in 80 W/m2
13:10 66.6 °F 56.5 °F 29.86 in Calm   3 mph 70% 0.00 in 117 W/m2
13:20 66.4 °F 56.7 °F 29.86 in WSW 1 mph 6 mph 71% 0.00 in 220 W/m2
13:30 66.6 °F 56.5 °F 29.86 in Calm   6 mph 70% 0.00 in 288 W/m2
13:40 66.6 °F 56.5 °F 29.86 in WNW 6 mph 13 mph 70% 0.00 in 425 W/m2
13:50 66.5 °F 56.8 °F 29.86 in NW 5 mph 12 mph 71% 0.00 in 366 W/m2
14:00 66.7 °F 57.4 °F 29.86 in WNW 5 mph 8 mph 72% 0.00 in 327 W/m2
14:10 67 °F 57.3 °F 29.86 in WNW 7 mph 10 mph 71% 0.00 in 864 W/m2
14:20 68.3 °F 57.7 °F 29.86 in WNW 5 mph 12 mph 69% 0.00 in 678 W/m2
14:30 68.9 °F 57.1 °F 29.86 in WNW 6 mph 12 mph 66% 0.00 in 367 W/m2
14:40 68.7 °F 55.2 °F 29.86 in WNW 6 mph 14 mph 62% 0.00 in 225 W/m2
14:50 68.2 °F 53.8 °F 29.86 in West 9 mph 16 mph 60% 0.00 in 280 W/m2
15:00 68.2 °F 55.1 °F 29.86 in West 12 mph 22 mph 63% 0.00 in 222 W/m2
15:10 67.6 °F 57.5 °F 29.86 in NW 6 mph 17 mph 70% 0.00 in 310 W/m2
15:20 67.3 °F 58.3 °F 29.86 in NNE 6 mph 12 mph 73% 0.00 in 270 W/m2
15:30 66.7 °F 58.5 °F 29.87 in NNE 5 mph 10 mph 75% 0.00 in 377 W/m2
15:40 66.7 °F 59.7 °F 29.87 in NNE 5 mph 12 mph 78% 0.00 in 595 W/m2
15:50 67.5 °F 60 °F 29.86 in NNE 3 mph 7 mph 77% 0.00 in 382 W/m2
16:00 67.9 °F 59.7 °F 29.86 in NNE 3 mph 7 mph 75% 0.00 in 512 W/m2
16:10 68.3 °F 59.3 °F 29.86 in NE 2 mph 11 mph 73% 0.00 in 590 W/m2
16:20 68.5 °F 59.2 °F 29.85 in NE 5 mph 12 mph 72% 0.00 in 561 W/m2
16:30 69.7 °F 60.3 °F 29.85 in North 1 mph 6 mph 72% 0.00 in 532 W/m2
16:40 70.5 °F 59.4 °F 29.85 in NNE 3 mph 8 mph 68% 0.00 in 229 W/m2
16:50 70.7 °F 59.2 °F 29.85 in NE 6 mph 8 mph 67% 0.00 in 471 W/m2
17:00 71.1 °F 59.5 °F 29.85 in NNE 2 mph 8 mph 67% 0.00 in 441 W/m2
17:10 71.4 °F 59.9 °F 29.85 in North 2 mph 7 mph 67% 0.00 in 388 W/m2
17:20 71.1 °F 59.5 °F 29.85 in North 3 mph 7 mph 67% 0.00 in 217 W/m2
17:30 70.9 °F 59.4 °F 29.85 in North 3 mph 8 mph 67% 0.00 in 110 W/m2
17:40 69.8 °F 59.2 °F 29.85 in North 3 mph 9 mph 69% 0.00 in 81 W/m2
17:50 68.8 °F 58.6 °F 29.85 in NNE 5 mph 11 mph 70% 0.00 in 188 W/m2
18:00 68.4 °F 59 °F 29.85 in North 5 mph 10 mph 72% 0.00 in 234 W/m2
18:10 68.2 °F 59.2 °F 29.85 in North 6 mph 8 mph 73% 0.00 in 181 W/m2
18:20 68 °F 58.6 °F 29.85 in North 3 mph 8 mph 72% 0.00 in 167 W/m2
18:30 67.8 °F 59.2 °F 29.85 in North 2 mph 7 mph 74% 0.00 in 119 W/m2
18:40 67.5 °F 58.5 °F 29.85 in North 2 mph 7 mph 73% 0.00 in 119 W/m2
18:50 67.5 °F 58.5 °F 29.85 in North 2 mph 7 mph 73% 0.00 in 102 W/m2
19:00 67.3 °F 58.3 °F 29.85 in North 1 mph 5 mph 73% 0.00 in 86 W/m2
19:10 66.9 °F 58 °F 29.86 in Calm   5 mph 73% 0.00 in 44 W/m2
19:20 66.4 °F 58.3 °F 29.86 in North 1 mph 1 mph 75% 0.00 in 27 W/m2
19:30 65.8 °F 57.7 °F 29.86 in Calm   1 mph 75% 0.00 in 16 W/m2
19:40 65 °F 56.9 °F 29.86 in North 1 mph 2 mph 75% 0.00 in 10 W/m2
19:50 64.2 °F 57.2 °F 29.86 in SSE 1 mph 3 mph 78% 0.00 in 4 W/m2
20:00 63.5 °F 56.9 °F 29.86 in SSW 1 mph 4 mph 79% 0.00 in 0 W/m2
20:10 63 °F 56.7 °F 29.86 in SSW 1 mph 2 mph 80% 0.00 in 0 W/m2
20:20 62.3 °F 56.4 °F 29.87 in South 1 mph 3 mph 81% 0.00 in 0 W/m2
20:30 61.5 °F 56.3 °F 29.87 in WSW 2 mph 3 mph 83% 0.00 in 0 W/m2
20:40 60.8 °F 56.3 °F 29.87 in WNW 2 mph 5 mph 85% 0.00 in 0 W/m2
20:50 60.3 °F 56.1 °F 29.87 in West 1 mph 5 mph 86% 0.00 in 0 W/m2
21:00 59.9 °F 55.7 °F 29.88 in WSW 1 mph 3 mph 86% 0.00 in 0 W/m2
21:10 59.5 °F 56 °F 29.88 in SW 1 mph 2 mph 88% 0.00 in 0 W/m2
21:20 59 °F 55.4 °F 29.88 in WSW 2 mph 3 mph 88% 0.00 in 0 W/m2
21:30 58.6 °F 55.4 °F 29.88 in WNW 2 mph 2 mph 89% 0.00 in 0 W/m2
21:40 58.5 °F 55.2 °F 29.88 in Calm   2 mph 89% 0.00 in 0 W/m2
21:50 58.3 °F 55.4 °F 29.88 in WSW 1 mph 2 mph 90% 0.00 in 0 W/m2
22:00 57.9 °F 55 °F 29.89 in NW 1 mph 2 mph 90% 0.00 in 0 W/m2
22:10 57.9 °F 55 °F 29.88 in NNE 2 mph 3 mph 90% 0.00 in 0 W/m2
22:20 57.9 °F 55 °F 29.88 in Calm   2 mph 90% 0.00 in 0 W/m2
22:30 57.9 °F 55 °F 29.88 in SSE 1 mph 2 mph 90% 0.00 in 0 W/m2
22:40 57.7 °F 54.8 °F 29.88 in East 2 mph 5 mph 90% 0.00 in 0 W/m2
22:50 57.7 °F 54.8 °F 29.88 in ESE 3 mph 8 mph 90% 0.00 in 0 W/m2
23:00 57.9 °F 55 °F 29.88 in ESE 3 mph 9 mph 90% 0.00 in 0 W/m2
23:10 57.7 °F 54.8 °F 29.88 in SE 1 mph 5 mph 90% 0.00 in 0 W/m2
23:20 57.6 °F 54.6 °F 29.88 in Calm   2 mph 90% 0.00 in 0 W/m2
23:30 57.5 °F 54.9 °F 29.88 in NW 1 mph 2 mph 91% 0.00 in 0 W/m2
23:40 57.4 °F 54.8 °F 29.88 in West 1 mph 2 mph 91% 0.00 in 0 W/m2
23:50 57.2 °F 54.6 °F 29.88 in Calm   2 mph 91% 0.00 in 0 W/m2
Knjazevac, Serbia
Compliments of Weather Underground - 2 mb